CheckWX is a tool to help pilots better visualize weather data.  It is not intended as a substitute for an official pre-flight weather briefing.

18:24:59 UTC

KFSM TAF
Fort Smith Regional Airport
Fort Smith, Arkansas, USA
KFSM 161734Z 1618/1718 09005KT P6SM BKN025 FM170600 08006KT P6SM OVC015

Feb-16@
18:00 UTC

Feb-16 @ 18:00 UTC

Feb-17@
06:00 UTC

Feb-17 @ 06:00 UTC

KFSM 161734Z 1618/1718 09005KT P6SM BKN025
Wind
  • 090° at 5 KTS
Cloud Levels
  • Broken at 2,500' AGL

Feb-17@
06:00 UTC

Feb-17 @ 06:00 UTC

Feb-17@
18:00 UTC

Feb-17 @ 18:00 UTC

FM170600 08006KT P6SM OVC015

From

From Standard forecast or significant change

Wind
  • 080° at 6 KTS
Cloud Levels
  • Overcast at 1,500' AGL